sensor_id;sensor_type;location;lat;lon;timestamp;P1;durP1;ratioP1;P2;durP2;ratioP2
7527;SDS011;3805;49.006;8.514;2023-05-07T00:01:45;6.17;;;5.60;;
7527;SDS011;3805;49.006;8.514;2023-05-07T00:04:33;7.70;;;5.80;;
7527;SDS011;3805;49.006;8.514;2023-05-07T00:07:24;5.47;;;4.77;;
7527;SDS011;3805;49.006;8.514;2023-05-07T00:10:13;5.70;;;5.20;;
7527;SDS011;3805;49.006;8.514;2023-05-07T00:13:02;6.80;;;5.50;;
7527;SDS011;3805;49.006;8.514;2023-05-07T00:15:50;5.03;;;4.47;;
7527;SDS011;3805;49.006;8.514;2023-05-07T00:18:40;5.70;;;5.20;;
7527;SDS011;3805;49.006;8.514;2023-05-07T00:21:28;6.53;;;5.87;;
7527;SDS011;3805;49.006;8.514;2023-05-07T00:24:17;5.67;;;5.17;;
7527;SDS011;3805;49.006;8.514;2023-05-07T00:27:06;5.40;;;4.90;;
7527;SDS011;3805;49.006;8.514;2023-05-07T00:29:54;5.50;;;5.10;;
7527;SDS011;3805;49.006;8.514;2023-05-07T00:32:43;5.97;;;5.40;;
7527;SDS011;3805;49.006;8.514;2023-05-07T00:35:33;6.60;;;5.53;;
7527;SDS011;3805;49.006;8.514;2023-05-07T00:38:22;7.23;;;5.60;;
7527;SDS011;3805;49.006;8.514;2023-05-07T00:41:11;6.47;;;5.87;;
7527;SDS011;3805;49.006;8.514;2023-05-07T00:43:59;6.40;;;5.23;;
7527;SDS011;3805;49.006;8.514;2023-05-07T00:46:48;5.47;;;4.97;;
7527;SDS011;3805;49.006;8.514;2023-05-07T00:49:38;5.97;;;5.47;;
7527;SDS011;3805;49.006;8.514;2023-05-07T00:52:29;8.33;;;6.47;;
7527;SDS011;3805;49.006;8.514;2023-05-07T00:55:18;5.73;;;5.20;;
7527;SDS011;3805;49.006;8.514;2023-05-07T00:58:06;6.33;;;5.90;;
7527;SDS011;3805;49.006;8.514;2023-05-07T01:00:55;10.20;;;5.27;;
7527;SDS011;3805;49.006;8.514;2023-05-07T01:03:44;5.73;;;5.33;;
7527;SDS011;3805;49.006;8.514;2023-05-07T01:06:33;5.50;;;5.10;;
7527;SDS011;3805;49.006;8.514;2023-05-07T01:09:24;12.40;;;5.37;;
7527;SDS011;3805;49.006;8.514;2023-05-07T01:12:12;6.47;;;5.97;;
7527;SDS011;3805;49.006;8.514;2023-05-07T01:15:01;6.20;;;5.70;;
7527;SDS011;3805;49.006;8.514;2023-05-07T01:17:50;6.10;;;5.60;;
7527;SDS011;3805;49.006;8.514;2023-05-07T01:20:39;5.90;;;5.40;;
7527;SDS011;3805;49.006;8.514;2023-05-07T01:23:29;9.80;;;6.00;;
7527;SDS011;3805;49.006;8.514;2023-05-07T01:26:18;6.80;;;6.07;;
7527;SDS011;3805;49.006;8.514;2023-05-07T01:29:07;5.97;;;5.37;;
7527;SDS011;3805;49.006;8.514;2023-05-07T01:31:56;8.40;;;6.13;;
7527;SDS011;3805;49.006;8.514;2023-05-07T01:34:45;5.70;;;5.27;;
7527;SDS011;3805;49.006;8.514;2023-05-07T01:37:35;6.60;;;6.10;;
7527;SDS011;3805;49.006;8.514;2023-05-07T01:40:26;6.17;;;5.53;;
7527;SDS011;3805;49.006;8.514;2023-05-07T01:43:15;6.70;;;6.10;;
7527;SDS011;3805;49.006;8.514;2023-05-07T01:46:04;6.80;;;5.80;;
7527;SDS011;3805;49.006;8.514;2023-05-07T01:48:52;6.07;;;5.57;;
7527;SDS011;3805;49.006;8.514;2023-05-07T01:51:41;6.10;;;5.30;;
7527;SDS011;3805;49.006;8.514;2023-05-07T01:54:29;6.33;;;5.13;;
7527;SDS011;3805;49.006;8.514;2023-05-07T01:57:19;11.37;;;6.27;;
7527;SDS011;3805;49.006;8.514;2023-05-07T02:00:09;6.23;;;5.50;;
7527;SDS011;3805;49.006;8.514;2023-05-07T02:02:58;6.53;;;5.30;;
7527;SDS011;3805;49.006;8.514;2023-05-07T02:05:47;6.30;;;5.80;;
7527;SDS011;3805;49.006;8.514;2023-05-07T02:08:36;6.57;;;6.07;;
7527;SDS011;3805;49.006;8.514;2023-05-07T02:11:24;7.03;;;6.43;;
7527;SDS011;3805;49.006;8.514;2023-05-07T02:14:15;6.57;;;6.07;;
7527;SDS011;3805;49.006;8.514;2023-05-07T02:17:03;7.13;;;5.93;;
7527;SDS011;3805;49.006;8.514;2023-05-07T02:19:52;6.40;;;5.90;;
7527;SDS011;3805;49.006;8.514;2023-05-07T02:22:40;7.23;;;5.80;;
7527;SDS011;3805;49.006;8.514;2023-05-07T02:25:29;6.10;;;5.50;;
7527;SDS011;3805;49.006;8.514;2023-05-07T02:28:17;7.03;;;6.40;;
7527;SDS011;3805;49.006;8.514;2023-05-07T02:31:07;5.20;;;4.70;;
7527;SDS011;3805;49.006;8.514;2023-05-07T02:33:55;12.90;;;6.30;;
7527;SDS011;3805;49.006;8.514;2023-05-07T02:36:44;5.83;;;5.33;;
7527;SDS011;3805;49.006;8.514;2023-05-07T02:39:32;5.17;;;4.83;;
7527;SDS011;3805;49.006;8.514;2023-05-07T02:42:21;6.30;;;5.70;;
7527;SDS011;3805;49.006;8.514;2023-05-07T02:45:10;5.37;;;4.97;;
7527;SDS011;3805;49.006;8.514;2023-05-07T02:48:00;6.37;;;5.77;;
7527;SDS011;3805;49.006;8.514;2023-05-07T02:50:49;6.30;;;5.70;;
7527;SDS011;3805;49.006;8.514;2023-05-07T02:53:37;6.77;;;6.13;;
7527;SDS011;3805;49.006;8.514;2023-05-07T02:56:26;8.63;;;5.60;;
7527;SDS011;3805;49.006;8.514;2023-05-07T02:59:14;6.67;;;5.80;;
7527;SDS011;3805;49.006;8.514;2023-05-07T03:02:03;6.30;;;5.80;;
7527;SDS011;3805;49.006;8.514;2023-05-07T03:04:53;6.90;;;5.93;;
7527;SDS011;3805;49.006;8.514;2023-05-07T03:07:42;5.50;;;5.10;;
7527;SDS011;3805;49.006;8.514;2023-05-07T03:10:33;6.23;;;5.60;;
7527;SDS011;3805;49.006;8.514;2023-05-07T03:13:21;8.40;;;7.37;;
7527;SDS011;3805;49.006;8.514;2023-05-07T03:16:10;5.70;;;5.27;;
7527;SDS011;3805;49.006;8.514;2023-05-07T03:18:58;6.17;;;5.57;;
7527;SDS011;3805;49.006;8.514;2023-05-07T03:21:48;8.43;;;5.70;;
7527;SDS011;3805;49.006;8.514;2023-05-07T03:24:37;5.57;;;5.17;;
7527;SDS011;3805;49.006;8.514;2023-05-07T03:27:25;11.13;;;6.23;;
7527;SDS011;3805;49.006;8.514;2023-05-07T03:30:14;7.43;;;6.60;;
7527;SDS011;3805;49.006;8.514;2023-05-07T03:33:02;6.27;;;5.73;;
7527;SDS011;3805;49.006;8.514;2023-05-07T03:35:51;7.10;;;6.50;;
7527;SDS011;3805;49.006;8.514;2023-05-07T03:38:41;5.57;;;5.07;;
7527;SDS011;3805;49.006;8.514;2023-05-07T03:41:29;12.23;;;5.57;;
7527;SDS011;3805;49.006;8.514;2023-05-07T03:44:18;6.60;;;5.60;;
7527;SDS011;3805;49.006;8.514;2023-05-07T03:47:07;6.00;;;5.50;;
7527;SDS011;3805;49.006;8.514;2023-05-07T03:49:57;6.70;;;5.23;;
7527;SDS011;3805;49.006;8.514;2023-05-07T03:52:46;6.03;;;5.57;;
7527;SDS011;3805;49.006;8.514;2023-05-07T03:55:36;5.83;;;5.33;;
7527;SDS011;3805;49.006;8.514;2023-05-07T03:58:24;9.30;;;5.70;;
7527;SDS011;3805;49.006;8.514;2023-05-07T04:01:13;6.47;;;5.97;;
7527;SDS011;3805;49.006;8.514;2023-05-07T04:04:01;6.03;;;5.53;;
7527;SDS011;3805;49.006;8.514;2023-05-07T04:06:51;6.03;;;5.43;;
7527;SDS011;3805;49.006;8.514;2023-05-07T04:09:40;10.33;;;6.17;;
7527;SDS011;3805;49.006;8.514;2023-05-07T04:12:29;7.60;;;5.60;;
7527;SDS011;3805;49.006;8.514;2023-05-07T04:15:18;5.33;;;4.87;;
7527;SDS011;3805;49.006;8.514;2023-05-07T04:18:06;6.87;;;6.27;;
7527;SDS011;3805;49.006;8.514;2023-05-07T04:20:55;6.00;;;5.50;;
7527;SDS011;3805;49.006;8.514;2023-05-07T04:23:44;5.80;;;5.27;;
7527;SDS011;3805;49.006;8.514;2023-05-07T04:26:32;7.30;;;5.30;;
7527;SDS011;3805;49.006;8.514;2023-05-07T04:29:22;8.80;;;5.87;;
7527;SDS011;3805;49.006;8.514;2023-05-07T04:32:10;5.77;;;5.20;;
7527;SDS011;3805;49.006;8.514;2023-05-07T04:34:59;7.00;;;6.30;;
7527;SDS011;3805;49.006;8.514;2023-05-07T04:37:48;7.47;;;6.77;;
7527;SDS011;3805;49.006;8.514;2023-05-07T04:40:36;6.30;;;4.83;;
7527;SDS011;3805;49.006;8.514;2023-05-07T04:43:25;6.27;;;5.63;;
7527;SDS011;3805;49.006;8.514;2023-05-07T04:46:15;5.90;;;5.40;;
7527;SDS011;3805;49.006;8.514;2023-05-07T04:49:04;7.37;;;5.53;;
7527;SDS011;3805;49.006;8.514;2023-05-07T04:51:52;6.40;;;5.90;;
7527;SDS011;3805;49.006;8.514;2023-05-07T04:54:41;6.17;;;5.50;;
7527;SDS011;3805;49.006;8.514;2023-05-07T04:57:30;5.20;;;4.80;;
7527;SDS011;3805;49.006;8.514;2023-05-07T05:00:18;5.80;;;5.30;;
7527;SDS011;3805;49.006;8.514;2023-05-07T05:03:08;6.10;;;5.20;;
7527;SDS011;3805;49.006;8.514;2023-05-07T05:05:57;6.70;;;5.40;;
7527;SDS011;3805;49.006;8.514;2023-05-07T05:08:46;6.87;;;6.20;;
7527;SDS011;3805;49.006;8.514;2023-05-07T05:11:35;5.87;;;5.27;;
7527;SDS011;3805;49.006;8.514;2023-05-07T05:14:23;6.50;;;5.90;;
7527;SDS011;3805;49.006;8.514;2023-05-07T05:17:12;6.60;;;6.00;;
7527;SDS011;3805;49.006;8.514;2023-05-07T05:20:02;6.13;;;5.53;;
7527;SDS011;3805;49.006;8.514;2023-05-07T05:22:51;6.10;;;5.60;;
7527;SDS011;3805;49.006;8.514;2023-05-07T05:25:40;8.00;;;7.20;;
7527;SDS011;3805;49.006;8.514;2023-05-07T05:28:28;6.00;;;5.53;;
7527;SDS011;3805;49.006;8.514;2023-05-07T05:31:17;6.20;;;5.60;;
7527;SDS011;3805;49.006;8.514;2023-05-07T05:34:05;6.47;;;5.87;;
7527;SDS011;3805;49.006;8.514;2023-05-07T05:36:55;6.50;;;6.00;;
7527;SDS011;3805;49.006;8.514;2023-05-07T05:39:44;5.70;;;5.20;;
7527;SDS011;3805;49.006;8.514;2023-05-07T05:42:32;5.07;;;4.70;;
7527;SDS011;3805;49.006;8.514;2023-05-07T05:45:21;5.77;;;4.90;;
7527;SDS011;3805;49.006;8.514;2023-05-07T05:48:09;5.83;;;5.40;;
7527;SDS011;3805;49.006;8.514;2023-05-07T05:50:58;6.27;;;5.70;;
7527;SDS011;3805;49.006;8.514;2023-05-07T05:53:48;6.80;;;5.30;;
7527;SDS011;3805;49.006;8.514;2023-05-07T05:56:37;6.17;;;5.37;;
7527;SDS011;3805;49.006;8.514;2023-05-07T05:59:25;6.03;;;5.23;;
7527;SDS011;3805;49.006;8.514;2023-05-07T06:02:14;5.73;;;5.30;;
7527;SDS011;3805;49.006;8.514;2023-05-07T06:05:03;6.13;;;5.40;;
7527;SDS011;3805;49.006;8.514;2023-05-07T06:07:52;8.13;;;5.50;;
7527;SDS011;3805;49.006;8.514;2023-05-07T06:10:42;6.47;;;5.37;;
7527;SDS011;3805;49.006;8.514;2023-05-07T06:13:31;5.30;;;4.90;;
7527;SDS011;3805;49.006;8.514;2023-05-07T06:16:19;7.43;;;5.50;;
7527;SDS011;3805;49.006;8.514;2023-05-07T06:19:08;5.67;;;5.27;;
7527;SDS011;3805;49.006;8.514;2023-05-07T06:21:57;6.13;;;5.50;;
7527;SDS011;3805;49.006;8.514;2023-05-07T06:24:45;5.10;;;4.57;;
7527;SDS011;3805;49.006;8.514;2023-05-07T06:27:35;6.00;;;4.93;;
7527;SDS011;3805;49.006;8.514;2023-05-07T06:30:23;5.37;;;4.93;;
7527;SDS011;3805;49.006;8.514;2023-05-07T06:33:13;5.33;;;4.83;;
7527;SDS011;3805;49.006;8.514;2023-05-07T06:36:02;4.97;;;4.60;;
7527;SDS011;3805;49.006;8.514;2023-05-07T06:38:51;5.70;;;5.20;;
7527;SDS011;3805;49.006;8.514;2023-05-07T06:41:39;5.10;;;4.70;;
7527;SDS011;3805;49.006;8.514;2023-05-07T06:44:29;5.93;;;4.20;;
7527;SDS011;3805;49.006;8.514;2023-05-07T06:47:18;5.83;;;4.70;;
7527;SDS011;3805;49.006;8.514;2023-05-07T06:50:07;4.70;;;4.30;;
7527;SDS011;3805;49.006;8.514;2023-05-07T06:52:57;4.20;;;3.90;;
7527;SDS011;3805;49.006;8.514;2023-05-07T06:55:45;4.13;;;3.90;;
7527;SDS011;3805;49.006;8.514;2023-05-07T06:58:34;3.90;;;3.60;;
7527;SDS011;3805;49.006;8.514;2023-05-07T07:01:23;4.57;;;4.17;;
7527;SDS011;3805;49.006;8.514;2023-05-07T07:04:12;4.10;;;3.80;;
7527;SDS011;3805;49.006;8.514;2023-05-07T07:07:01;4.13;;;3.83;;
7527;SDS011;3805;49.006;8.514;2023-05-07T07:09:49;3.83;;;3.53;;
7527;SDS011;3805;49.006;8.514;2023-05-07T07:12:41;3.57;;;3.27;;
7527;SDS011;3805;49.006;8.514;2023-05-07T07:15:30;3.60;;;3.30;;
7527;SDS011;3805;49.006;8.514;2023-05-07T07:18:20;3.57;;;3.23;;
7527;SDS011;3805;49.006;8.514;2023-05-07T07:21:09;3.30;;;3.00;;
7527;SDS011;3805;49.006;8.514;2023-05-07T07:23:58;4.67;;;3.27;;
7527;SDS011;3805;49.006;8.514;2023-05-07T07:26:46;3.93;;;3.00;;
7527;SDS011;3805;49.006;8.514;2023-05-07T07:29:35;3.10;;;2.90;;
7527;SDS011;3805;49.006;8.514;2023-05-07T07:32:23;3.20;;;3.00;;
7527;SDS011;3805;49.006;8.514;2023-05-07T07:35:14;3.27;;;3.03;;
7527;SDS011;3805;49.006;8.514;2023-05-07T07:38:02;6.40;;;3.40;;
7527;SDS011;3805;49.006;8.514;2023-05-07T07:40:51;2.83;;;2.63;;
7527;SDS011;3805;49.006;8.514;2023-05-07T07:43:40;3.30;;;3.00;;
7527;SDS011;3805;49.006;8.514;2023-05-07T07:46:28;3.90;;;3.40;;
7527;SDS011;3805;49.006;8.514;2023-05-07T07:49:17;3.20;;;3.00;;
7527;SDS011;3805;49.006;8.514;2023-05-07T07:52:07;3.27;;;3.00;;
7527;SDS011;3805;49.006;8.514;2023-05-07T07:54:55;3.37;;;3.07;;
7527;SDS011;3805;49.006;8.514;2023-05-07T07:57:44;5.50;;;3.53;;
7527;SDS011;3805;49.006;8.514;2023-05-07T08:00:32;4.60;;;3.23;;
7527;SDS011;3805;49.006;8.514;2023-05-07T08:03:21;4.63;;;2.93;;
7527;SDS011;3805;49.006;8.514;2023-05-07T08:06:10;3.20;;;2.90;;
7527;SDS011;3805;49.006;8.514;2023-05-07T08:08:59;3.13;;;2.93;;
7527;SDS011;3805;49.006;8.514;2023-05-07T08:11:48;3.07;;;2.87;;
7527;SDS011;3805;49.006;8.514;2023-05-07T08:14:37;3.80;;;2.90;;
7527;SDS011;3805;49.006;8.514;2023-05-07T08:17:26;3.30;;;3.00;;
7527;SDS011;3805;49.006;8.514;2023-05-07T08:20:15;3.00;;;2.77;;
7527;SDS011;3805;49.006;8.514;2023-05-07T08:23:04;3.13;;;2.93;;
7527;SDS011;3805;49.006;8.514;2023-05-07T08:25:54;5.87;;;2.97;;
7527;SDS011;3805;49.006;8.514;2023-05-07T08:28:43;3.07;;;2.87;;
7527;SDS011;3805;49.006;8.514;2023-05-07T08:31:32;3.07;;;2.87;;
7527;SDS011;3805;49.006;8.514;2023-05-07T08:34:21;3.27;;;3.07;;
7527;SDS011;3805;49.006;8.514;2023-05-07T08:37:10;4.10;;;3.50;;
7527;SDS011;3805;49.006;8.514;2023-05-07T08:39:58;4.17;;;3.77;;
7527;SDS011;3805;49.006;8.514;2023-05-07T08:42:49;2.70;;;2.50;;
7527;SDS011;3805;49.006;8.514;2023-05-07T08:45:38;3.57;;;3.30;;
7527;SDS011;3805;49.006;8.514;2023-05-07T08:48:27;2.93;;;2.73;;
7527;SDS011;3805;49.006;8.514;2023-05-07T08:51:18;3.43;;;3.03;;
7527;SDS011;3805;49.006;8.514;2023-05-07T08:54:07;3.43;;;3.23;;
7527;SDS011;3805;49.006;8.514;2023-05-07T08:56:57;3.37;;;3.07;;
7527;SDS011;3805;49.006;8.514;2023-05-07T08:59:47;3.60;;;3.40;;
7527;SDS011;3805;49.006;8.514;2023-05-07T09:02:36;5.20;;;3.20;;
7527;SDS011;3805;49.006;8.514;2023-05-07T09:05:25;3.00;;;2.80;;
7527;SDS011;3805;49.006;8.514;2023-05-07T09:08:14;3.40;;;3.13;;
7527;SDS011;3805;49.006;8.514;2023-05-07T09:11:03;3.30;;;3.00;;
7527;SDS011;3805;49.006;8.514;2023-05-07T09:13:53;3.17;;;2.97;;
7527;SDS011;3805;49.006;8.514;2023-05-07T09:16:43;3.53;;;3.23;;
7527;SDS011;3805;49.006;8.514;2023-05-07T09:19:32;4.50;;;3.40;;
7527;SDS011;3805;49.006;8.514;2023-05-07T09:22:21;3.00;;;2.80;;
7527;SDS011;3805;49.006;8.514;2023-05-07T09:25:09;3.70;;;3.20;;
7527;SDS011;3805;49.006;8.514;2023-05-07T09:27:58;3.10;;;2.80;;
7527;SDS011;3805;49.006;8.514;2023-05-07T09:30:47;3.93;;;3.63;;
7527;SDS011;3805;49.006;8.514;2023-05-07T09:33:37;4.40;;;4.00;;
7527;SDS011;3805;49.006;8.514;2023-05-07T09:36:26;3.27;;;3.07;;
7527;SDS011;3805;49.006;8.514;2023-05-07T09:39:15;3.10;;;2.90;;
7527;SDS011;3805;49.006;8.514;2023-05-07T09:42:04;4.90;;;4.40;;
7527;SDS011;3805;49.006;8.514;2023-05-07T09:44:54;4.00;;;3.60;;
7527;SDS011;3805;49.006;8.514;2023-05-07T09:47:43;3.77;;;3.23;;
7527;SDS011;3805;49.006;8.514;2023-05-07T09:50:35;5.43;;;3.57;;
7527;SDS011;3805;49.006;8.514;2023-05-07T09:53:25;3.33;;;3.13;;
7527;SDS011;3805;49.006;8.514;2023-05-07T09:56:14;4.40;;;3.20;;
7527;SDS011;3805;49.006;8.514;2023-05-07T09:59:03;4.43;;;4.13;;
7527;SDS011;3805;49.006;8.514;2023-05-07T10:01:54;3.37;;;3.07;;
7527;SDS011;3805;49.006;8.514;2023-05-07T10:04:45;3.87;;;3.53;;
7527;SDS011;3805;49.006;8.514;2023-05-07T10:07:35;3.77;;;3.43;;
7527;SDS011;3805;49.006;8.514;2023-05-07T10:10:24;3.60;;;3.30;;
7527;SDS011;3805;49.006;8.514;2023-05-07T10:13:13;6.57;;;3.80;;
7527;SDS011;3805;49.006;8.514;2023-05-07T10:16:02;3.70;;;3.40;;
7527;SDS011;3805;49.006;8.514;2023-05-07T10:18:51;3.73;;;3.40;;
7527;SDS011;3805;49.006;8.514;2023-05-07T10:21:43;3.77;;;3.53;;
7527;SDS011;3805;49.006;8.514;2023-05-07T10:24:35;4.20;;;3.50;;
7527;SDS011;3805;49.006;8.514;2023-05-07T10:27:24;4.13;;;3.73;;
7527;SDS011;3805;49.006;8.514;2023-05-07T10:30:15;3.73;;;3.43;;
7527;SDS011;3805;49.006;8.514;2023-05-07T10:33:10;3.23;;;3.00;;
7527;SDS011;3805;49.006;8.514;2023-05-07T10:36:00;6.23;;;3.87;;
7527;SDS011;3805;49.006;8.514;2023-05-07T10:38:51;3.83;;;3.53;;
7527;SDS011;3805;49.006;8.514;2023-05-07T10:41:41;4.30;;;3.90;;
7527;SDS011;3805;49.006;8.514;2023-05-07T10:44:30;4.23;;;3.53;;
7527;SDS011;3805;49.006;8.514;2023-05-07T10:47:19;4.87;;;3.83;;
7527;SDS011;3805;49.006;8.514;2023-05-07T10:50:20;4.50;;;4.10;;
7527;SDS011;3805;49.006;8.514;2023-05-07T10:53:23;3.80;;;3.50;;
7527;SDS011;3805;49.006;8.514;2023-05-07T10:56:26;4.83;;;3.10;;
7527;SDS011;3805;49.006;8.514;2023-05-07T10:59:35;4.53;;;3.37;;
7527;SDS011;3805;49.006;8.514;2023-05-07T11:06:11;3.40;;;3.20;;
7527;SDS011;3805;49.006;8.514;2023-05-07T11:09:00;4.50;;;4.10;;
7527;SDS011;3805;49.006;8.514;2023-05-07T11:11:49;3.70;;;3.40;;
7527;SDS011;3805;49.006;8.514;2023-05-07T11:14:46;3.90;;;3.60;;
7527;SDS011;3805;49.006;8.514;2023-05-07T11:17:35;4.17;;;3.77;;
7527;SDS011;3805;49.006;8.514;2023-05-07T11:20:53;3.90;;;3.60;;
7527;SDS011;3805;49.006;8.514;2023-05-07T11:23:55;5.00;;;4.70;;
7527;SDS011;3805;49.006;8.514;2023-05-07T11:26:47;4.30;;;4.00;;
7527;SDS011;3805;49.006;8.514;2023-05-07T11:29:36;4.23;;;3.57;;
7527;SDS011;3805;49.006;8.514;2023-05-07T11:32:27;4.10;;;3.70;;
7527;SDS011;3805;49.006;8.514;2023-05-07T11:35:17;4.30;;;3.90;;
7527;SDS011;3805;49.006;8.514;2023-05-07T11:38:06;3.10;;;2.90;;
7527;SDS011;3805;49.006;8.514;2023-05-07T11:40:56;3.40;;;3.20;;
7527;SDS011;3805;49.006;8.514;2023-05-07T11:43:58;3.70;;;3.40;;
7527;SDS011;3805;49.006;8.514;2023-05-07T11:46:47;3.60;;;3.30;;
7527;SDS011;3805;49.006;8.514;2023-05-07T11:49:38;3.57;;;3.30;;
7527;SDS011;3805;49.006;8.514;2023-05-07T11:52:27;3.63;;;3.07;;
7527;SDS011;3805;49.006;8.514;2023-05-07T11:55:17;3.43;;;3.17;;
7527;SDS011;3805;49.006;8.514;2023-05-07T11:58:06;3.97;;;3.70;;
7527;SDS011;3805;49.006;8.514;2023-05-07T12:00:56;3.30;;;3.00;;
7527;SDS011;3805;49.006;8.514;2023-05-07T12:03:45;3.50;;;3.10;;
7527;SDS011;3805;49.006;8.514;2023-05-07T12:06:37;4.53;;;4.13;;
7527;SDS011;3805;49.006;8.514;2023-05-07T12:09:26;3.53;;;3.20;;
7527;SDS011;3805;49.006;8.514;2023-05-07T12:12:14;3.30;;;3.10;;
7527;SDS011;3805;49.006;8.514;2023-05-07T12:15:04;3.97;;;3.50;;
7527;SDS011;3805;49.006;8.514;2023-05-07T12:17:54;3.97;;;3.67;;
7527;SDS011;3805;49.006;8.514;2023-05-07T12:20:42;4.17;;;3.77;;
7527;SDS011;3805;49.006;8.514;2023-05-07T12:23:33;3.27;;;3.07;;
7527;SDS011;3805;49.006;8.514;2023-05-07T12:26:22;3.63;;;3.33;;
7527;SDS011;3805;49.006;8.514;2023-05-07T12:29:11;4.20;;;3.90;;
7527;SDS011;3805;49.006;8.514;2023-05-07T12:32:00;3.70;;;3.50;;
7527;SDS011;3805;49.006;8.514;2023-05-07T12:34:51;3.57;;;3.30;;
7527;SDS011;3805;49.006;8.514;2023-05-07T12:37:39;4.63;;;2.80;;
7527;SDS011;3805;49.006;8.514;2023-05-07T12:40:36;4.83;;;4.50;;
7527;SDS011;3805;49.006;8.514;2023-05-07T12:43:25;3.97;;;3.57;;
7527;SDS011;3805;49.006;8.514;2023-05-07T12:46:14;3.97;;;3.70;;
7527;SDS011;3805;49.006;8.514;2023-05-07T12:49:05;4.27;;;3.33;;
7527;SDS011;3805;49.006;8.514;2023-05-07T12:51:54;3.80;;;3.50;;
7527;SDS011;3805;49.006;8.514;2023-05-07T12:54:43;3.10;;;2.90;;
7527;SDS011;3805;49.006;8.514;2023-05-07T12:57:38;3.20;;;3.00;;
7527;SDS011;3805;49.006;8.514;2023-05-07T13:00:34;3.60;;;3.30;;
7527;SDS011;3805;49.006;8.514;2023-05-07T13:03:23;3.50;;;3.30;;
7527;SDS011;3805;49.006;8.514;2023-05-07T13:06:13;4.63;;;3.30;;
7527;SDS011;3805;49.006;8.514;2023-05-07T13:09:02;4.63;;;4.00;;
7527;SDS011;3805;49.006;8.514;2023-05-07T13:11:51;4.57;;;3.90;;
7527;SDS011;3805;49.006;8.514;2023-05-07T13:14:41;3.50;;;3.20;;
7527;SDS011;3805;49.006;8.514;2023-05-07T13:17:30;3.23;;;2.97;;
7527;SDS011;3805;49.006;8.514;2023-05-07T13:20:19;5.53;;;4.10;;
7527;SDS011;3805;49.006;8.514;2023-05-07T13:23:07;3.17;;;2.73;;
7527;SDS011;3805;49.006;8.514;2023-05-07T13:25:56;3.53;;;2.93;;
7527;SDS011;3805;49.006;8.514;2023-05-07T13:28:45;3.27;;;3.07;;
7527;SDS011;3805;49.006;8.514;2023-05-07T13:31:35;3.43;;;3.13;;
7527;SDS011;3805;49.006;8.514;2023-05-07T13:34:23;3.37;;;3.13;;
7527;SDS011;3805;49.006;8.514;2023-05-07T13:37:12;3.47;;;3.20;;
7527;SDS011;3805;49.006;8.514;2023-05-07T13:40:01;3.97;;;3.67;;
7527;SDS011;3805;49.006;8.514;2023-05-07T13:42:50;3.27;;;2.70;;
7527;SDS011;3805;49.006;8.514;2023-05-07T13:45:39;7.20;;;2.87;;
7527;SDS011;3805;49.006;8.514;2023-05-07T13:48:29;2.60;;;2.10;;
7527;SDS011;3805;49.006;8.514;2023-05-07T13:51:18;2.47;;;1.90;;
7527;SDS011;3805;49.006;8.514;2023-05-07T13:54:06;2.30;;;2.00;;
7527;SDS011;3805;49.006;8.514;2023-05-07T13:56:55;2.00;;;1.90;;
7527;SDS011;3805;49.006;8.514;2023-05-07T13:59:43;1.90;;;1.80;;
7527;SDS011;3805;49.006;8.514;2023-05-07T14:02:32;2.57;;;2.37;;
7527;SDS011;3805;49.006;8.514;2023-05-07T14:05:22;2.33;;;2.17;;
7527;SDS011;3805;49.006;8.514;2023-05-07T14:08:11;2.00;;;1.80;;
7527;SDS011;3805;49.006;8.514;2023-05-07T14:11:00;2.30;;;2.10;;
7527;SDS011;3805;49.006;8.514;2023-05-07T14:13:49;3.53;;;1.70;;
7527;SDS011;3805;49.006;8.514;2023-05-07T14:16:38;2.10;;;1.70;;
7527;SDS011;3805;49.006;8.514;2023-05-07T14:19:26;1.50;;;1.40;;
7527;SDS011;3805;49.006;8.514;2023-05-07T14:22:18;2.40;;;1.47;;
7527;SDS011;3805;49.006;8.514;2023-05-07T14:25:07;1.67;;;1.40;;
7527;SDS011;3805;49.006;8.514;2023-05-07T14:27:56;1.77;;;1.60;;
7527;SDS011;3805;49.006;8.514;2023-05-07T14:30:45;3.40;;;1.77;;
7527;SDS011;3805;49.006;8.514;2023-05-07T14:33:35;1.90;;;1.80;;
7527;SDS011;3805;49.006;8.514;2023-05-07T14:36:26;1.80;;;1.60;;
7527;SDS011;3805;49.006;8.514;2023-05-07T14:39:16;2.00;;;1.80;;
7527;SDS011;3805;49.006;8.514;2023-05-07T14:42:04;3.70;;;1.83;;
7527;SDS011;3805;49.006;8.514;2023-05-07T14:44:54;2.00;;;1.80;;
7527;SDS011;3805;49.006;8.514;2023-05-07T14:47:43;2.87;;;2.03;;
7527;SDS011;3805;49.006;8.514;2023-05-07T14:50:32;1.97;;;1.80;;
7527;SDS011;3805;49.006;8.514;2023-05-07T14:53:20;1.73;;;1.63;;
7527;SDS011;3805;49.006;8.514;2023-05-07T14:56:10;2.40;;;2.20;;
7527;SDS011;3805;49.006;8.514;2023-05-07T14:58:59;1.97;;;1.87;;
7527;SDS011;3805;49.006;8.514;2023-05-07T15:01:48;2.53;;;1.47;;
7527;SDS011;3805;49.006;8.514;2023-05-07T15:04:37;1.60;;;1.50;;
7527;SDS011;3805;49.006;8.514;2023-05-07T15:07:27;1.70;;;1.60;;
7527;SDS011;3805;49.006;8.514;2023-05-07T15:10:15;1.63;;;1.53;;
7527;SDS011;3805;49.006;8.514;2023-05-07T15:13:06;1.63;;;1.53;;
7527;SDS011;3805;49.006;8.514;2023-05-07T15:15:54;2.13;;;1.93;;
7527;SDS011;3805;49.006;8.514;2023-05-07T15:18:43;2.73;;;1.90;;
7527;SDS011;3805;49.006;8.514;2023-05-07T15:21:32;4.80;;;1.80;;
7527;SDS011;3805;49.006;8.514;2023-05-07T15:24:21;2.20;;;1.87;;
7527;SDS011;3805;49.006;8.514;2023-05-07T15:27:10;1.80;;;1.70;;
7527;SDS011;3805;49.006;8.514;2023-05-07T15:30:00;2.83;;;2.03;;
7527;SDS011;3805;49.006;8.514;2023-05-07T15:32:49;2.53;;;2.30;;
7527;SDS011;3805;49.006;8.514;2023-05-07T15:35:38;1.90;;;1.80;;
7527;SDS011;3805;49.006;8.514;2023-05-07T15:38:26;1.90;;;1.80;;
7527;SDS011;3805;49.006;8.514;2023-05-07T15:41:15;1.90;;;1.80;;
7527;SDS011;3805;49.006;8.514;2023-05-07T15:44:03;2.13;;;2.00;;
7527;SDS011;3805;49.006;8.514;2023-05-07T15:46:53;3.00;;;2.17;;
7527;SDS011;3805;49.006;8.514;2023-05-07T15:49:42;2.07;;;1.90;;
7527;SDS011;3805;49.006;8.514;2023-05-07T15:52:31;2.30;;;2.10;;
7527;SDS011;3805;49.006;8.514;2023-05-07T15:55:19;2.37;;;2.07;;
7527;SDS011;3805;49.006;8.514;2023-05-07T15:58:08;5.17;;;2.20;;
7527;SDS011;3805;49.006;8.514;2023-05-07T16:00:56;2.23;;;2.03;;
7527;SDS011;3805;49.006;8.514;2023-05-07T16:03:46;2.37;;;2.17;;
7527;SDS011;3805;49.006;8.514;2023-05-07T16:06:35;2.60;;;2.40;;
7527;SDS011;3805;49.006;8.514;2023-05-07T16:09:24;2.33;;;2.13;;
7527;SDS011;3805;49.006;8.514;2023-05-07T16:12:14;3.27;;;2.97;;
7527;SDS011;3805;49.006;8.514;2023-05-07T16:15:04;3.77;;;2.30;;
7527;SDS011;3805;49.006;8.514;2023-05-07T16:17:54;2.50;;;2.30;;
7527;SDS011;3805;49.006;8.514;2023-05-07T16:20:45;4.37;;;3.40;;
7527;SDS011;3805;49.006;8.514;2023-05-07T16:23:34;2.23;;;2.03;;
7527;SDS011;3805;49.006;8.514;2023-05-07T16:26:23;3.40;;;2.83;;
7527;SDS011;3805;49.006;8.514;2023-05-07T16:29:12;5.20;;;3.07;;
7527;SDS011;3805;49.006;8.514;2023-05-07T16:32:01;4.80;;;2.73;;
7527;SDS011;3805;49.006;8.514;2023-05-07T16:34:50;2.40;;;2.20;;
7527;SDS011;3805;49.006;8.514;2023-05-07T16:37:40;4.47;;;2.17;;
7527;SDS011;3805;49.006;8.514;2023-05-07T16:40:29;2.00;;;1.90;;
7527;SDS011;3805;49.006;8.514;2023-05-07T16:43:17;2.63;;;2.40;;
7527;SDS011;3805;49.006;8.514;2023-05-07T16:46:06;2.13;;;2.03;;
7527;SDS011;3805;49.006;8.514;2023-05-07T16:48:55;2.63;;;2.40;;
7527;SDS011;3805;49.006;8.514;2023-05-07T16:51:44;2.40;;;2.20;;
7527;SDS011;3805;49.006;8.514;2023-05-07T16:54:35;2.50;;;2.30;;
7527;SDS011;3805;49.006;8.514;2023-05-07T16:57:24;4.00;;;3.60;;
7527;SDS011;3805;49.006;8.514;2023-05-07T17:00:13;3.30;;;3.00;;
7527;SDS011;3805;49.006;8.514;2023-05-07T17:03:02;3.80;;;2.80;;
7527;SDS011;3805;49.006;8.514;2023-05-07T17:05:52;3.37;;;3.10;;
7527;SDS011;3805;49.006;8.514;2023-05-07T17:08:41;3.03;;;2.70;;
7527;SDS011;3805;49.006;8.514;2023-05-07T17:11:31;3.60;;;2.70;;
7527;SDS011;3805;49.006;8.514;2023-05-07T17:14:21;2.60;;;2.40;;
7527;SDS011;3805;49.006;8.514;2023-05-07T17:17:09;5.53;;;2.30;;
7527;SDS011;3805;49.006;8.514;2023-05-07T17:19:58;4.10;;;2.60;;
7527;SDS011;3805;49.006;8.514;2023-05-07T17:22:47;3.10;;;2.80;;
7527;SDS011;3805;49.006;8.514;2023-05-07T17:25:36;3.17;;;2.57;;
7527;SDS011;3805;49.006;8.514;2023-05-07T17:28:26;3.07;;;2.77;;
7527;SDS011;3805;49.006;8.514;2023-05-07T17:31:15;2.77;;;2.43;;
7527;SDS011;3805;49.006;8.514;2023-05-07T17:34:03;3.37;;;3.07;;
7527;SDS011;3805;49.006;8.514;2023-05-07T17:36:52;3.80;;;2.67;;